Thunder radar more information blitzortung!


Radar de pluja more information rain snow radar


Visita la nostra xarxa de llocs de meteo:

Template documentation
and downloads

And another site



No particular awareness of the weather is required.    There are no Weather-warnings

Pagina Historial Weather Underground text

Diari Resum Juny 8, 2017 Unitats:  Imperial    Mètric   Tant
« Previous Dia
SegĂźent Dia »
Diari Setmana Mensual Anual Personalitzada
  Maxima: Minima: Media:
Temperatura: TemperatureC °F 16.9 °F 23.5 °F
Punt de rosada: DewpointC °F 13.4 °F 15.4 °F
Humitat: Humidity % 49 % 61 %
Wind Speed: WindSpeedKMH mph 0.0 mph 8.4 mph
RĂ fegues de vent: WindSpeedGustKMH mph - -
Vent:- - SW
Pression baro: PressurehPa in 1013.8 in -
Precipitacions: 0.0 in    
Historical Graphs
 
 
Dades de taula per Juny 8, 2017
Temps Temperatura Punt de rosada Pression baro Vent Wind Speed RĂ fegues de vent Humitat Rainfall Rate (Hourly)
TemperatureC °F DewpointC °F PressurehPa in Calm     Humidity % HourlyPrecipMM in
00:03 17.8 °F 13.7 °F 1019.9 in SW 3.7 mph 3.7 mph 77 % 0.0 in
01:45 17.8 °F 14.5 °F 1019.9 in WSW 1.6 mph 3.2 mph 81 % 0.0 in
01:55 17.7 °F 14.4 °F 1019.9 in SW 1.6 mph 3.2 mph 81 % 0.0 in
02:05 17.8 °F 14.7 °F 1019.9 in Calm   3.2 mph 82 % 0.0 in
02:15 17.8 °F 14.7 °F 1019.9 in Calm     82 % 0.0 in
02:25 18.0 °F 14.9 °F 1019.9 in Calm     82 % 0.0 in
02:35 18.1 °F 15.0 °F 1019.9 in WSW 1.6 mph 3.2 mph 82 % 0.0 in
02:45 18.2 °F 14.9 °F 1019.9 in Calm   3.2 mph 81 % 0.0 in
02:55 18.4 °F 14.9 °F 1019.9 in WSW 1.6 mph 3.2 mph 80 % 0.0 in
03:05 18.7 °F 15.0 °F 1019.9 in SW 1.6 mph 3.2 mph 79 % 0.0 in
03:15 19.2 °F 15.1 °F 1019.9 in WSW 1.6 mph 4.8 mph 77 % 0.0 in
03:25 19.5 °F 15.2 °F 1019.9 in West 3.2 mph 4.8 mph 76 % 0.0 in
03:35 19.4 °F 14.8 °F 1019.9 in WSW 1.6 mph 4.8 mph 75 % 0.0 in
03:45 20.2 °F 15.2 °F 1019.9 in SW 1.6 mph 3.2 mph 73 % 0.0 in
03:55 21.0 °F 15.8 °F 1018.8 in WSW 1.6 mph 3.2 mph 72 % 0.0 in
04:05 20.7 °F 15.1 °F 1018.8 in NE 1.6 mph 6.4 mph 70 % 0.0 in
04:15 21.1 °F 15.4 °F 1018.8 in NNE 1.6 mph 6.4 mph 70 % 0.0 in
04:25 21.8 °F 15.6 °F 1019.9 in NW 3.2 mph 4.8 mph 68 % 0.0 in
04:35 22.4 °F 15.7 °F 1019.9 in NNW 1.6 mph 4.8 mph 66 % 0.0 in
04:45 22.7 °F 16.0 °F 1019.9 in WNW 1.6 mph 6.4 mph 66 % 0.0 in
04:55 22.2 °F 15.3 °F 1018.8 in WSW 4.8 mph 6.4 mph 65 % 0.0 in
05:05 22.8 °F 15.9 °F 1018.8 in WSW 3.2 mph 9.7 mph 65 % 0.0 in
05:15 23.2 °F 16.0 °F 1018.8 in SW 4.8 mph 8.0 mph 64 % 0.0 in
05:25 23.0 °F 15.8 °F 1019.9 in SW 4.8 mph 11.3 mph 64 % 0.0 in
05:35 23.2 °F 15.8 °F 1019.9 in SW 3.2 mph 12.9 mph 63 % 0.0 in
05:45 23.4 °F 15.9 °F 1019.9 in SSW 4.8 mph 11.3 mph 63 % 0.0 in
10:50 23.6 °F 16.2 °F 1018.8 in SW 9.3 mph 9.3 mph 63 % 0.0 in
10:55 23.2 °F 15.8 °F 1018.8 in SW 11.1 mph 11.1 mph 63 % 0.0 in
11:00 23.6 °F 16.4 °F 1018.8 in SSW 5.6 mph 5.6 mph 64 % 0.0 in
11:05 23.9 °F 16.4 °F 1018.8 in SSW 3.7 mph 3.7 mph 63 % 0.0 in
11:10 23.9 °F 16.2 °F 1018.8 in SSW 9.5 mph 9.5 mph 62 % 0.0 in
11:15 24.4 °F 16.7 °F 1018.8 in SSW 7.4 mph 7.4 mph 62 % 0.0 in
11:20 24.3 °F 16.6 °F 1018.8 in SW 14.8 mph 14.8 mph 62 % 0.0 in
11:25 24.7 °F 16.7 °F 1018.8 in WSW 9.3 mph 9.3 mph 61 % 0.0 in
11:30 25.1 °F 16.5 °F 1018.8 in SSW 11.1 mph 11.1 mph 59 % 0.0 in
11:35 24.8 °F 16.5 °F 1018.8 in WSW 14.8 mph 14.8 mph 60 % 0.0 in
11:40 25.1 °F 16.5 °F 1018.8 in SW 5.6 mph 5.6 mph 59 % 0.0 in
11:45 25.6 °F 17.0 °F 1018.8 in SW 9.3 mph 9.3 mph 59 % 0.0 in
11:50 25.8 °F 16.9 °F 1018.8 in SW 9.3 mph 9.3 mph 58 % 0.0 in
11:55 25.6 °F 16.7 °F 1018.8 in SW 12.6 mph 12.6 mph 58 % 0.0 in
12:00 25.9 °F 16.7 °F 1018.8 in SSW 9.3 mph 9.3 mph 57 % 0.0 in
12:05 25.7 °F 16.6 °F 1018.8 in SSW 11.1 mph 11.1 mph 57 % 0.0 in
12:06 25.7 °F 16.6 °F 1018.8 in SSW 13.0 mph 13.0 mph 57 % 0.0 in
12:11 26.0 °F 16.8 °F 1018.8 in South 9.3 mph 9.3 mph 57 % 0.0 in
12:16 25.9 °F 16.7 °F 1018.8 in WSW 8.7 mph 8.7 mph 57 % 0.0 in
12:18 26.0 °F 16.8 °F 1018.8 in SSW 7.4 mph 7.4 mph 57 % 0.0 in
12:28 26.5 °F 16.7 °F 1018.8 in SE 5.6 mph 5.6 mph 55 % 0.0 in
12:33 26.5 °F 16.7 °F 1018.8 in South 5.6 mph 5.6 mph 55 % 0.0 in
12:38 26.9 °F 17.1 °F 1018.8 in SW 5.6 mph 5.6 mph 55 % 0.0 in
12:43 26.4 °F 16.6 °F 1018.8 in SW 9.3 mph 9.3 mph 55 % 0.0 in
12:48 25.9 °F 16.2 °F 1018.8 in SW 11.1 mph 11.1 mph 55 % 0.0 in
12:53 26.0 °F 16.3 °F 1018.8 in South 14.8 mph 14.8 mph 55 % 0.0 in
12:58 26.0 °F 16.3 °F 1018.8 in SW 11.1 mph 11.1 mph 55 % 0.0 in
13:03 26.2 °F 16.4 °F 1017.8 in WSW 13.0 mph 13.0 mph 55 % 0.0 in
13:08 26.4 °F 16.6 °F 1017.8 in South 13.0 mph 13.0 mph 55 % 0.0 in
13:13 26.8 °F 16.7 °F 1017.8 in SSW 9.0 mph 9.0 mph 54 % 0.0 in
13:18 27.2 °F 17.1 °F 1017.8 in SSW 7.4 mph 7.4 mph 54 % 0.0 in
13:23 27.5 °F 17.1 °F 1017.8 in SSE 7.4 mph 7.4 mph 53 % 0.0 in
13:28 27.3 °F 16.9 °F 1017.8 in SW 13.0 mph 13.0 mph 53 % 0.0 in
13:33 27.1 °F 16.4 °F 1018.8 in SSW 14.8 mph 14.8 mph 52 % 0.0 in
13:38 26.9 °F 16.5 °F 1018.8 in SW 13.0 mph 13.0 mph 53 % 0.0 in
13:43 27.2 °F 16.2 °F 1018.8 in South 7.4 mph 7.4 mph 51 % 0.0 in
13:48 27.9 °F 17.1 °F 1017.8 in SW 7.9 mph 7.9 mph 52 % 0.0 in
13:53 27.5 °F 16.4 °F 1017.8 in WSW 11.1 mph 11.1 mph 51 % 0.0 in
13:58 27.5 °F 16.8 °F 1017.8 in SW 9.3 mph 9.3 mph 52 % 0.0 in
13:59 27.6 °F 16.6 °F 1017.8 in South 11.4 mph 11.4 mph 51 % 0.0 in
14:04 27.5 °F 16.4 °F 1017.8 in WSW 11.1 mph 11.1 mph 51 % 0.0 in
14:09 27.1 °F 16.1 °F 1017.8 in SW 7.4 mph 7.4 mph 51 % 0.0 in
14:14 28.0 °F 16.9 °F 1017.8 in SE 7.4 mph 7.4 mph 51 % 0.0 in
14:19 28.3 °F 17.2 °F 1017.8 in SSW 9.3 mph 9.3 mph 51 % 0.0 in
14:24 27.9 °F 16.8 °F 1017.8 in SSW 9.3 mph 9.3 mph 51 % 0.0 in
14:29 28.2 °F 17.1 °F 1017.8 in SSW 10.3 mph 10.3 mph 51 % 0.0 in
14:34 28.1 °F 17.0 °F 1017.8 in SSE 11.1 mph 11.1 mph 51 % 0.0 in
14:39 27.6 °F 16.6 °F 1017.8 in South 11.1 mph 11.1 mph 51 % 0.0 in
14:44 27.5 °F 16.4 °F 1017.8 in South 16.7 mph 16.7 mph 51 % 0.0 in
14:49 27.8 °F 16.7 °F 1016.8 in SW 12.2 mph 12.2 mph 51 % 0.0 in
14:54 27.5 °F 16.2 °F 1016.8 in SW 13.0 mph 13.0 mph 50 % 0.0 in
14:59 27.7 °F 16.7 °F 1016.8 in WSW 13.0 mph 13.0 mph 51 % 0.0 in
15:04 28.1 °F 16.7 °F 1017.8 in South 9.3 mph 9.3 mph 50 % 0.0 in
15:09 28.1 °F 16.7 °F 1017.8 in SW 13.0 mph 13.0 mph 50 % 0.0 in
15:14 28.0 °F 16.6 °F 1017.8 in WSW 10.0 mph 10.0 mph 50 % 0.0 in
15:19 28.3 °F 17.2 °F 1016.8 in WSW 9.3 mph 9.3 mph 51 % 0.0 in
15:24 28.6 °F 17.2 °F 1016.8 in SW 9.7 mph 9.7 mph 50 % 0.0 in
15:29 28.8 °F 17.7 °F 1016.8 in SSW 13.0 mph 13.0 mph 51 % 0.0 in
15:34 28.8 °F 17.7 °F 1016.8 in SW 15.6 mph 15.6 mph 51 % 0.0 in
15:39 28.2 °F 16.8 °F 1016.8 in SSW 11.1 mph 11.1 mph 50 % 0.0 in
15:44 28.3 °F 16.9 °F 1016.8 in SW 13.0 mph 13.0 mph 50 % 0.0 in
15:49 29.0 °F 17.2 °F 1016.8 in SW 10.0 mph 10.0 mph 49 % 0.0 in
15:54 28.7 °F 17.2 °F 1016.8 in WSW 9.3 mph 9.3 mph 50 % 0.0 in
15:59 28.1 °F 16.7 °F 1016.8 in SW 9.3 mph 9.3 mph 50 % 0.0 in
16:04 27.9 °F 16.5 °F 1016.8 in SW 15.6 mph 15.6 mph 50 % 0.0 in
16:09 27.9 °F 16.8 °F 1016.8 in ESE 9.3 mph 9.3 mph 51 % 0.0 in
16:14 28.1 °F 16.7 °F 1016.8 in WSW 18.5 mph 18.5 mph 50 % 0.0 in
16:19 28.4 °F 17.0 °F 1015.8 in WSW 9.3 mph 9.3 mph 50 % 0.0 in
16:24 27.5 °F 16.2 °F 1015.8 in WSW 16.7 mph 16.7 mph 50 % 0.0 in
16:29 27.6 °F 16.6 °F 1015.8 in SW 12.6 mph 12.6 mph 51 % 0.0 in
16:34 27.5 °F 16.4 °F 1015.8 in SW 20.4 mph 20.4 mph 51 % 0.0 in
16:39 27.0 °F 16.0 °F 1015.8 in South 14.8 mph 14.8 mph 51 % 0.0 in
16:44 27.2 °F 16.2 °F 1015.8 in SSE 9.3 mph 9.3 mph 51 % 0.0 in
16:49 27.0 °F 16.0 °F 1015.8 in SSW 13.0 mph 13.7 mph 51 % 0.0 in
16:54 27.1 °F 16.4 °F 1015.8 in SSW 11.1 mph 11.1 mph 52 % 0.0 in
16:59 27.6 °F 16.6 °F 1015.8 in SW 9.3 mph 9.3 mph 51 % 0.0 in
17:04 27.2 °F 16.2 °F 1015.8 in SSW 17.2 mph 17.2 mph 51 % 0.0 in
17:09 26.9 °F 16.2 °F 1015.8 in SW 16.7 mph 16.7 mph 52 % 0.0 in
17:14 27.1 °F 16.1 °F 1015.8 in West 14.8 mph 14.8 mph 51 % 0.0 in
17:19 27.4 °F 16.7 °F 1016.8 in SSW 16.9 mph 16.9 mph 52 % 0.0 in
17:24 26.9 °F 16.5 °F 1016.8 in SSW 14.8 mph 14.8 mph 53 % 0.0 in
17:29 27.0 °F 16.0 °F 1016.8 in SW 14.8 mph 14.8 mph 51 % 0.0 in
17:34 26.8 °F 16.1 °F 1015.8 in SW 11.1 mph 11.1 mph 52 % 0.0 in
17:39 27.0 °F 16.0 °F 1015.8 in SW 13.0 mph 13.0 mph 51 % 0.0 in
17:44 26.5 °F 15.8 °F 1015.8 in SW 11.1 mph 11.1 mph 52 % 0.0 in
17:49 27.0 °F 16.3 °F 1015.8 in SW 9.3 mph 9.3 mph 52 % 0.0 in
17:54 26.6 °F 15.9 °F 1015.8 in SW 12.2 mph 12.2 mph 52 % 0.0 in
17:59 26.9 °F 16.2 °F 1015.8 in SW 11.1 mph 11.1 mph 52 % 0.0 in
18:04 27.2 °F 16.5 °F 1014.8 in WSW 7.4 mph 7.4 mph 52 % 0.0 in
18:09 27.2 °F 16.2 °F 1014.8 in South 13.0 mph 13.0 mph 51 % 0.0 in
18:19 26.4 °F 15.8 °F 1015.8 in SSW 13.0 mph 13.0 mph 52 % 0.0 in
18:24 26.5 °F 15.8 °F 1015.8 in South 7.4 mph 7.4 mph 52 % 0.0 in
18:29 26.5 °F 15.8 °F 1015.8 in WSW 11.1 mph 11.1 mph 52 % 0.0 in
18:34 26.1 °F 15.5 °F 1014.8 in SW 13.0 mph 13.0 mph 52 % 0.0 in
18:39 26.3 °F 15.7 °F 1014.8 in West 12.6 mph 12.6 mph 52 % 0.0 in
18:44 26.3 °F 15.7 °F 1014.8 in SSW 9.5 mph 9.5 mph 52 % 0.0 in
18:49 26.2 °F 15.6 °F 1014.8 in SW 3.7 mph 4.7 mph 52 % 0.0 in
18:54 25.9 °F 15.3 °F 1014.8 in SW 14.8 mph 14.8 mph 52 % 0.0 in
18:59 26.0 °F 15.4 °F 1014.8 in SW 5.6 mph 5.6 mph 52 % 0.0 in
19:04 26.2 °F 15.6 °F 1014.8 in WSW 5.8 mph 5.8 mph 52 % 0.0 in
19:09 26.0 °F 15.4 °F 1014.8 in SW 9.3 mph 9.3 mph 52 % 0.0 in
19:14 25.4 °F 14.5 °F 1014.8 in SW 11.1 mph 11.1 mph 51 % 0.0 in
19:15 25.4 °F 14.8 °F 1014.8 in SSW 9.3 mph 9.3 mph 52 % 0.0 in
19:20 25.3 °F 14.7 °F 1013.8 in WSW 7.4 mph 7.4 mph 52 % 0.0 in
19:25 25.2 °F 14.7 °F 1013.8 in SSW 9.3 mph 9.3 mph 52 % 0.0 in
19:30 24.9 °F 14.7 °F 1013.8 in SW 10.8 mph 10.8 mph 53 % 0.0 in
19:35 25.0 °F 14.4 °F 1013.8 in SSW 13.0 mph 13.0 mph 52 % 0.0 in
19:40 24.9 °F 14.7 °F 1013.8 in South 9.5 mph 9.5 mph 53 % 0.0 in
19:45 24.5 °F 14.6 °F 1013.8 in SE 13.0 mph 13.0 mph 54 % 0.0 in
19:50 24.3 °F 14.4 °F 1013.8 in WSW 13.7 mph 13.7 mph 54 % 0.0 in
19:55 24.0 °F 14.4 °F 1013.8 in SW 9.3 mph 9.3 mph 55 % 0.0 in
20:00 24.0 °F 14.4 °F 1013.8 in SW 10.3 mph 10.3 mph 55 % 0.0 in
20:05 23.8 °F 14.5 °F 1013.8 in WSW 11.4 mph 11.4 mph 56 % 0.0 in
20:10 23.6 °F 14.3 °F 1013.8 in WSW 5.6 mph 5.6 mph 56 % 0.0 in
20:15 23.4 °F 14.1 °F 1013.8 in WSW 12.2 mph 12.2 mph 56 % 0.0 in
20:20 23.1 °F 14.1 °F 1013.8 in South 11.1 mph 11.1 mph 57 % 0.0 in
20:25 22.8 °F 13.8 °F 1013.8 in SW 9.3 mph 9.3 mph 57 % 0.0 in
20:30 22.6 °F 13.9 °F 1013.8 in SSW 10.0 mph 10.0 mph 58 % 0.0 in
20:35 22.3 °F 13.6 °F 1013.8 in SW 13.0 mph 13.0 mph 58 % 0.0 in
20:40 22.2 °F 13.8 °F 1013.8 in WSW 7.9 mph 7.9 mph 59 % 0.0 in
20:45 22.0 °F 13.6 °F 1013.8 in WSW 11.1 mph 11.1 mph 59 % 0.0 in
20:50 21.8 °F 13.7 °F 1013.8 in SW 14.8 mph 14.8 mph 60 % 0.0 in
20:55 21.7 °F 13.8 °F 1013.8 in WSW 9.3 mph 9.3 mph 61 % 0.0 in
21:00 21.5 °F 13.7 °F 1013.8 in SW 5.6 mph 5.8 mph 61 % 0.0 in
21:05 21.4 °F 13.8 °F 1013.8 in West 9.3 mph 9.3 mph 62 % 0.0 in
21:06 21.4 °F 13.8 °F 1013.8 in SW 9.3 mph 9.3 mph 62 % 0.0 in
21:11 21.2 °F 13.6 °F 1013.8 in WSW 8.7 mph 8.7 mph 62 % 0.0 in
21:15 18.2 °F 15.1 °F 1015.8 in Calm   1.6 mph 82 % 0.0 in
21:16 21.0 °F 13.4 °F 1013.8 in SW 9.3 mph 9.3 mph 62 % 0.0 in
21:21 20.9 °F 13.6 °F 1013.8 in WSW 11.1 mph 11.1 mph 63 % 0.0 in
21:25 18.3 °F 15.2 °F 1016.8 in WSW 1.6 mph 4.8 mph 82 % 0.0 in
21:26 20.7 °F 13.4 °F 1013.8 in SSW 9.3 mph 9.3 mph 63 % 0.0 in
21:31 20.6 °F 13.6 °F 1013.8 in SW 13.7 mph 13.7 mph 64 % 0.0 in
21:35 18.2 °F 15.1 °F 1015.8 in West 1.6 mph 3.2 mph 82 % 0.0 in
21:36 20.4 °F 13.6 °F 1013.8 in SSW 7.4 mph 7.4 mph 65 % 0.0 in
21:41 20.3 °F 13.7 °F 1013.8 in WSW 11.1 mph 11.1 mph 66 % 0.0 in
21:45 18.3 °F 15.0 °F 1015.8 in West 4.8 mph 4.8 mph 81 % 0.0 in
21:46 20.2 °F 13.7 °F 1013.8 in SW 9.3 mph 9.3 mph 66 % 0.0 in
21:51 20.1 °F 13.8 °F 1014.8 in SSW 10.0 mph 10.0 mph 67 % 0.0 in
21:55 18.3 °F 15.0 °F 1016.8 in West 3.2 mph 4.8 mph 81 % 0.0 in
21:56 20.0 °F 13.7 °F 1014.8 in SW 7.4 mph 7.4 mph 67 % 0.0 in
22:01 20.0 °F 13.9 °F 1014.8 in SW 7.4 mph 7.4 mph 68 % 0.0 in
22:05 18.3 °F 15.2 °F 1016.8 in WSW 1.6 mph 4.8 mph 82 % 0.0 in
22:06 19.9 °F 14.3 °F 1014.8 in SW 9.3 mph 9.3 mph 70 % 0.0 in
22:11 19.8 °F 14.4 °F 1014.8 in SW 11.1 mph 11.1 mph 71 % 0.0 in
22:15 18.2 °F 14.9 °F 1016.8 in WSW 1.6 mph 3.2 mph 81 % 0.0 in
22:16 19.7 °F 14.3 °F 1014.8 in SW 7.4 mph 7.4 mph 71 % 0.0 in
22:25 18.0 °F 14.7 °F 1015.8 in Calm     81 % 0.0 in
22:26 19.5 °F 14.3 °F 1015.8 in SW 5.6 mph 5.6 mph 72 % 0.0 in
22:31 19.4 °F 14.2 °F 1015.8 in SSW 5.0 mph 5.3 mph 72 % 0.0 in
22:35 17.8 °F 14.7 °F 1015.8 in Calm   4.8 mph 82 % 0.0 in
22:36 19.3 °F 14.3 °F 1014.8 in West 5.6 mph 5.6 mph 73 % 0.0 in
22:41 19.2 °F 14.2 °F 1014.8 in WSW 7.9 mph 7.9 mph 73 % 0.0 in
22:45 17.6 °F 14.5 °F 1015.8 in SW 3.2 mph 3.2 mph 82 % 0.0 in
22:46 19.1 °F 14.3 °F 1014.8 in SW 6.4 mph 6.4 mph 74 % 0.0 in
22:51 19.1 °F 14.3 °F 1015.8 in WSW 7.4 mph 7.4 mph 74 % 0.0 in
22:55 17.4 °F 14.5 °F 1015.8 in Calm     83 % 0.0 in
22:56 19.0 °F 14.3 °F 1015.8 in SW 7.4 mph 7.4 mph 74 % 0.0 in
23:01 19.0 °F 14.4 °F 1015.8 in SW 7.4 mph 7.4 mph 75 % 0.0 in
23:05 17.4 °F 14.5 °F 1015.8 in WSW 3.2 mph 3.2 mph 83 % 0.0 in
23:06 18.9 °F 14.6 °F 1014.8 in SW 3.7 mph 5.0 mph 76 % 0.0 in
23:11 18.9 °F 14.8 °F 1014.8 in South 5.6 mph 5.6 mph 77 % 0.0 in
23:15 17.2 °F 14.3 °F 1015.8 in Calm   1.6 mph 83 % 0.0 in
23:16 18.8 °F 14.7 °F 1014.8 in SSW 4.2 mph 4.2 mph 77 % 0.0 in
23:21 18.7 °F 14.6 °F 1015.8 in SSW 3.7 mph 3.7 mph 77 % 0.0 in
23:25 17.1 °F 14.2 °F 1015.8 in Calm   3.2 mph 83 % 0.0 in
23:26 18.7 °F 14.6 °F 1015.8 in SSW 5.6 mph 5.6 mph 77 % 0.0 in
23:31 18.6 °F 14.5 °F 1015.8 in South 7.4 mph 7.4 mph 77 % 0.0 in
23:35 16.9 °F 14.2 °F 1015.8 in SW 1.6 mph 4.8 mph 84 % 0.0 in
23:36 18.6 °F 14.5 °F 1015.8 in SW 7.4 mph 7.4 mph 77 % 0.0 in
23:41 18.5 °F 14.6 °F 1015.8 in SW 7.4 mph 7.4 mph 78 % 0.0 in
23:45 17.0 °F 13.9 °F 1015.8 in WSW 3.2 mph 3.2 mph 82 % 0.0 in
23:46 18.5 °F 14.6 °F 1015.8 in WSW 7.4 mph 7.4 mph 78 % 0.0 in
23:51 18.4 °F 14.5 °F 1015.8 in SW 7.4 mph 7.4 mph 78 % 0.0 in
23:55 17.1 °F 14.0 °F 1015.8 in WSW 3.2 mph 4.8 mph 82 % 0.0 in
23:56 18.4 °F 14.5 °F 1015.8 in SW 5.6 mph 5.6 mph 78 % 0.0 in
Meteo Sesrovires
Elogis d' Weather Underground - 2 mb

Guio original per  Jim McMurry - jmcmurry@mwt.net Adaptat per a la plantilla per  Wim van der Kuil - Leuven-Template.eu

Trobareu la nostra informacio del temps tambe a:

Weather Underground

AWEKAS